Waverly, IA

5:41 AM CST on February 11, 2016 (GMT -0600)
Wartburg College Observatory | | Change Station
CLOSE
Current Station
Personal Weather Station
Location: Waverly, IA
Elevation: 928 ft
Nearby Weather Stations

Elev 928 ft 42.73 °N, 92.49 °W | Updated 10 seconds ago

Partly Cloudy
Partly Cloudy
-2.8 °F
Feels Like -11 °F
N
3.5
Wind Variable Wind from NW
Gusts 3.5 mph

Today
High -- | Low -- °F
--% Chance of Precip.
Yesterday
High -- | Low -- °F
Precip. -- in
Pressure 30.36 in
Visibility 10.0 miles
Clouds Clear
Windchill -11 °F
Dew Point -7 °F
Humidity 82%
Rainfall 0.00 in
Snow Depth Not available.
7:13 AM 5:35 PM
Waxing Crescent, 11% visible
METAR KALO 111054Z 32005KT 10SM CLR M18/M21 A3029 RMK AO2 SLP280 T11781206
Pressure 30.36 in
Visibility 10.0 miles
Clouds Clear
Windchill -11 °F
Dew Point -7 °F
Humidity 82%
Rainfall 0.00 in
Snow Depth Not available.
7:13 AM 5:35 PM
Waxing Crescent, 11% visible
METAR KALO 111054Z 32005KT 10SM CLR M18/M21 A3029 RMK AO2 SLP280 T11781206

10-Day Weather Forecast

Almanac

Astronomy

Feb. 11, 2016 Rise Set
Actual Time
Civil Twilight
Nautical Twilight
Astronomical Twilight
Moon
Length of Visible Light
Length of Day
Tomorrow will be .
, % of the Moon is Illuminated

Today's Extremes

State Highs State Lows

Community

WunderPhotos

Upload Photos

1,892,030 photos uploaded!

WunderBlog® & News

Nearby

Air Quality

  Air Quality AQ Index Pollutant
Not available.

Snow Depth

Station Depth Elevation

Earthquake Activity

City Distance Mag. Time & Date
Minimum magnitude displayed is 2.5.

Coastal Water Temperatures

Place Temperature

Stations

Nearby Weather Stations

Station Location Temp. Windchill Dew Point Humidity Wind Precip. Elev Updated Type
                   

Watches & Warnings

There are currently no watches in effect.